Time;durP1;ratioP1;P1;durP2;ratioP2;P2;SDS_P1;SDS_P2;PMS_P1;PMS_P2;Temp;Humidity;BMP_temperature;BMP_pressure;BME280_temperature;BME280_humidity;BME280_pressure;Samples;Min_cycle;Max_cycle;Signal;HPM_P1;HPM_P2
2023/10/14 00:00:26;;;;;;;7.78;4.60;;;;;;;;;;5035654;28;20040;-80
2023/10/14 00:02:52;;;;;;;5.00;3.50;;;;;;;;;;5015838;28;20036;-76
2023/10/14 00:05:20;;;;;;;6.85;3.40;;;;;;;;;;5021229;28;20114;-76
2023/10/14 00:07:45;;;;;;;5.53;3.25;;;;;;;;;;5041022;28;20044;-76
2023/10/14 00:10:12;;;;;;;6.10;3.60;;;;;;;;;;5011215;28;20057;-76
2023/10/14 00:12:39;;;;;;;7.05;3.92;;;;;;;;;;5038695;28;20037;-82
2023/10/14 00:15:06;;;;;;;5.57;3.63;;;;;;;;;;5047517;28;20120;-76
2023/10/14 00:17:36;;;;;;;8.48;4.05;;;;;;;;;;5031676;28;20401;-77
2023/10/14 00:20:03;;;;;;;7.80;3.97;;;;;;;;;;5040586;28;20612;-78
2023/10/14 00:22:29;;;;;;;6.90;4.00;;;;;;;;;;5030280;28;20088;-77
2023/10/14 00:24:58;;;;;;;6.88;3.83;;;;;;;;;;5041821;28;20060;-76
2023/10/14 00:27:24;;;;;;;6.43;3.83;;;;;;;;;;5022087;28;20067;-76
2023/10/14 00:30:09;;;;;;;9.18;4.28;;;;;;;;;;5040456;28;20033;-77
2023/10/14 00:32:35;;;;;;;7.78;3.53;;;;;;;;;;5046513;28;20037;-78
2023/10/14 00:35:03;;;;;;;7.72;4.28;;;;;;;;;;5023977;28;20112;-77
2023/10/14 00:37:32;;;;;;;7.28;3.83;;;;;;;;;;5035085;28;20041;-80
2023/10/14 00:40:03;;;;;;;7.38;3.50;;;;;;;;;;5034492;28;20037;-79
2023/10/14 00:42:28;;;;;;;8.32;4.50;;;;;;;;;;5035687;28;20094;-77
2023/10/14 00:44:54;;;;;;;11.48;4.43;;;;;;;;;;5046360;28;20029;-76
2023/10/14 00:47:23;;;;;;;5.50;3.33;;;;;;;;;;5032722;28;20047;-76
2023/10/14 00:49:52;;;;;;;6.43;3.95;;;;;;;;;;5037198;28;20041;-77
2023/10/14 00:52:21;;;;;;;6.80;4.45;;;;;;;;;;5036560;28;20040;-77
2023/10/14 00:59:50;;;;;;;6.10;3.80;;;;;;;;;;5037923;28;20119;-76
2023/10/14 01:02:31;;;;;;;7.60;4.60;;;;;;;;;;5035166;28;20106;-76
2023/10/14 01:05:01;;;;;;;7.70;4.28;;;;;;;;;;5029232;28;20116;-77
2023/10/14 01:07:26;;;;;;;5.18;3.92;;;;;;;;;;5032436;28;20029;-76
2023/10/14 01:09:52;;;;;;;7.47;4.13;;;;;;;;;;5040612;28;20090;-77
2023/10/14 01:15:12;;;;;;;6.88;4.18;;;;;;;;;;5032337;28;20096;-76
2023/10/14 01:17:37;;;;;;;7.35;3.97;;;;;;;;;;5027346;28;20075;-78
2023/10/14 01:20:26;;;;;;;10.43;4.63;;;;;;;;;;5023308;28;20069;-76
2023/10/14 01:23:00;;;;;;;7.20;3.70;;;;;;;;;;5034912;28;20036;-78
2023/10/14 01:25:32;;;;;;;6.10;4.15;;;;;;;;;;5027914;28;20600;-76
2023/10/14 01:27:59;;;;;;;6.78;3.53;;;;;;;;;;5045685;28;20455;-76
2023/10/14 01:30:26;;;;;;;7.15;4.43;;;;;;;;;;5020938;28;20028;-80
2023/10/14 01:33:07;;;;;;;5.57;3.40;;;;;;;;;;5042473;28;20064;-79
2023/10/14 01:35:40;;;;;;;6.85;4.47;;;;;;;;;;5023056;28;20041;-77
2023/10/14 01:38:06;;;;;;;5.75;4.20;;;;;;;;;;5028881;28;20132;-79
2023/10/14 01:40:48;;;;;;;6.57;4.38;;;;;;;;;;5042399;28;20124;-79
2023/10/14 01:43:15;;;;;;;8.02;4.50;;;;;;;;;;5039853;28;20036;-76
2023/10/14 01:48:14;;;;;;;8.15;4.05;;;;;;;;;;5024823;28;20047;-77
2023/10/14 01:50:46;;;;;;;7.13;4.43;;;;;;;;;;5042886;28;20040;-80
2023/10/14 01:53:21;;;;;;;7.80;4.80;;;;;;;;;;5039915;28;20091;-76
2023/10/14 01:55:47;;;;;;;4.55;3.42;;;;;;;;;;5050141;28;20710;-76
2023/10/14 01:58:22;;;;;;;8.95;4.63;;;;;;;;;;5045308;28;20041;-78
2023/10/14 02:00:53;;;;;;;9.77;4.30;;;;;;;;;;5009934;28;20111;-76
2023/10/14 02:03:21;;;;;;;;;;;;;;;;;;5040779;28;20040;-76
2023/10/14 02:05:47;;;;;;;5.05;3.53;;;;;;;;;;5044164;28;19912;-76
2023/10/14 02:08:16;;;;;;;7.93;4.47;;;;;;;;;;5036950;28;20050;-78
2023/10/14 02:10:46;;;;;;;6.07;4.05;;;;;;;;;;5044947;28;20028;-76
2023/10/14 02:13:14;;;;;;;6.68;4.00;;;;;;;;;;5025391;28;20069;-76
2023/10/14 02:15:39;;;;;;;9.10;4.20;;;;;;;;;;5037779;28;20413;-75
2023/10/14 02:18:05;;;;;;;7.15;3.63;;;;;;;;;;5042453;28;20067;-78
2023/10/14 02:20:37;;;;;;;7.32;4.80;;;;;;;;;;5019930;28;20163;-76
2023/10/14 02:23:04;;;;;;;10.45;4.00;;;;;;;;;;5038600;28;20592;-76
2023/10/14 02:25:31;;;;;;;6.20;3.67;;;;;;;;;;5025787;28;20072;-81
2023/10/14 02:27:57;;;;;;;7.95;4.30;;;;;;;;;;5021939;28;20061;-76
2023/10/14 02:30:23;;;;;;;7.63;4.07;;;;;;;;;;5036384;28;20067;-76
2023/10/14 02:32:48;;;;;;;11.77;4.60;;;;;;;;;;5036564;28;20098;-77
2023/10/14 02:35:15;;;;;;;8.05;4.10;;;;;;;;;;5038592;28;20052;-75
2023/10/14 02:37:41;;;;;;;6.45;3.75;;;;;;;;;;5051687;28;20068;-78
2023/10/14 02:40:16;;;;;;;6.22;3.88;;;;;;;;;;5028136;28;20028;-76
2023/10/14 02:42:41;;;;;;;6.35;3.63;;;;;;;;;;5026952;28;20044;-75
2023/10/14 02:45:12;;;;;;;8.68;4.20;;;;;;;;;;5040528;28;20040;-77
2023/10/14 02:47:38;;;;;;;9.13;4.70;;;;;;;;;;5048348;28;20044;-76
2023/10/14 02:50:13;;;;;;;9.20;3.90;;;;;;;;;;5048500;28;20558;-79
2023/10/14 02:52:38;;;;;;;4.85;3.72;;;;;;;;;;5036080;28;20029;-75
2023/10/14 02:55:24;;;;;;;6.75;3.88;;;;;;;;;;5042416;28;20080;-77
2023/10/14 02:57:50;;;;;;;7.35;4.25;;;;;;;;;;5039925;28;20566;-76
2023/10/14 03:00:34;;;;;;;6.85;4.13;;;;;;;;;;5042426;28;20045;-76
2023/10/14 03:03:02;;;;;;;4.88;3.30;;;;;;;;;;5034252;28;20099;-75
2023/10/14 03:08:09;;;;;;;7.80;3.90;;;;;;;;;;5040616;28;20370;-77
2023/10/14 03:10:35;;;;;;;7.20;3.25;;;;;;;;;;5037212;28;20049;-76
2023/10/14 03:13:01;;;;;;;8.32;3.97;;;;;;;;;;5030977;28;20529;-75
2023/10/14 03:15:30;;;;;;;7.43;3.75;;;;;;;;;;5029856;28;20116;-75
2023/10/14 03:18:01;;;;;;;13.25;4.40;;;;;;;;;;5018738;28;20128;-77
2023/10/14 03:23:27;;;;;;;9.98;3.80;;;;;;;;;;5048793;28;20590;-77
2023/10/14 03:25:53;;;;;;;6.47;3.47;;;;;;;;;;5038316;28;20056;-78
2023/10/14 03:28:20;;;;;;;5.65;3.65;;;;;;;;;;5039891;28;20036;-77
2023/10/14 03:30:47;;;;;;;7.93;3.95;;;;;;;;;;5023076;28;20068;-79
2023/10/14 03:33:15;;;;;;;8.98;3.53;;;;;;;;;;5035849;28;20041;-76
2023/10/14 03:35:43;;;;;;;8.00;4.03;;;;;;;;;;5021770;28;20045;-75
2023/10/14 03:38:24;;;;;;;6.50;3.38;;;;;;;;;;5023257;28;20440;-76
2023/10/14 03:41:03;;;;;;;8.73;3.60;;;;;;;;;;5044139;28;20036;-78
2023/10/14 03:44:15;;;;;;;7.13;3.47;;;;;;;;;;5045396;28;20036;-75
2023/10/14 03:48:56;;;;;;;6.35;3.30;;;;;;;;;;5043665;28;20128;-80
2023/10/14 03:51:27;;;;;;;5.63;3.05;;;;;;;;;;5043608;28;20032;-75
2023/10/14 03:53:57;;;;;;;4.32;3.63;;;;;;;;;;5027890;28;20056;-77
2023/10/14 03:56:27;;;;;;;6.28;3.70;;;;;;;;;;5041913;28;20119;-75
2023/10/14 03:58:57;;;;;;;6.30;3.85;;;;;;;;;;5027570;28;20067;-76
2023/10/14 04:01:43;;;;;;;8.38;3.08;;;;;;;;;;5016973;28;20047;-76
2023/10/14 04:04:18;;;;;;;5.53;3.05;;;;;;;;;;5035967;28;20513;-76
2023/10/14 04:06:51;;;;;;;4.63;2.83;;;;;;;;;;5035831;28;20051;-80
2023/10/14 04:09:24;;;;;;;3.85;2.58;;;;;;;;;;5034406;28;20080;-76
2023/10/14 04:11:54;;;;;;;4.30;1.90;;;;;;;;;;5040106;28;20041;-75
2023/10/14 04:14:22;;;;;;;3.03;1.88;;;;;;;;;;5048539;28;20040;-77
2023/10/14 04:17:09;;;;;;;3.42;1.75;;;;;;;;;;5026950;28;20044;-76
2023/10/14 04:19:44;;;;;;;1.92;1.30;;;;;;;;;;5036277;28;20032;-80
2023/10/14 04:27:45;;;;;;;5.25;1.45;;;;;;;;;;5033918;28;19961;-77
2023/10/14 04:30:14;;;;;;;2.55;1.58;;;;;;;;;;5032272;28;20497;-77
2023/10/14 04:33:34;;;;;;;2.80;1.75;;;;;;;;;;5037467;28;20508;-76
2023/10/14 04:35:26;;;;;;;2.38;1.60;;;;;;;;;;5035901;28;20032;-79
2023/10/14 04:37:53;;;;;;;2.75;1.60;;;;;;;;;;5023966;23;20440;-75
2023/10/14 04:42:59;;;;;;;3.90;1.70;;;;;;;;;;5004284;28;20084;-76
2023/10/14 04:45:31;;;;;;;2.25;1.15;;;;;;;;;;5010447;28;20034;-79
2023/10/14 04:47:57;;;;;;;1.70;1.00;;;;;;;;;;5007915;28;20134;-75
2023/10/14 04:50:23;;;;;;;2.13;1.30;;;;;;;;;;5000629;28;20058;-75
2023/10/14 04:52:49;;;;;;;2.08;0.73;;;;;;;;;;5010282;28;20045;-77
2023/10/14 04:55:51;;;;;;;1.98;0.82;;;;;;;;;;4993013;28;20033;-76
2023/10/14 05:00:33;;;;;;;1.55;0.60;;;;;;;;;;5011051;28;20096;-75
2023/10/14 05:03:02;;;;;;;2.67;0.85;;;;;;;;;;5012639;28;20790;-76
2023/10/14 05:05:32;;;;;;;0.63;0.43;;;;;;;;;;4998526;28;20571;-76
2023/10/14 05:07:58;;;;;;;0.97;0.50;;;;;;;;;;4995996;28;20041;-76
2023/10/14 05:10:30;;;;;;;0.55;0.30;;;;;;;;;;4984460;28;20788;-76
2023/10/14 05:12:56;;;;;;;0.98;0.50;;;;;;;;;;5015004;28;20053;-76
2023/10/14 05:15:26;;;;;;;0.40;0.30;;;;;;;;;;5008051;28;20038;-75
2023/10/14 05:17:52;;;;;;;0.85;0.40;;;;;;;;;;5018460;28;20083;-76
2023/10/14 05:23:05;;;;;;;0.98;0.45;;;;;;;;;;5014262;28;20060;-76
2023/10/14 05:25:31;;;;;;;0.63;0.30;;;;;;;;;;5009509;28;20502;-76
2023/10/14 05:27:57;;;;;;;1.65;0.40;;;;;;;;;;5011425;28;20433;-76
2023/10/14 05:30:24;;;;;;;0.68;0.32;;;;;;;;;;5013053;28;20187;-75
2023/10/14 05:32:53;;;;;;;0.32;0.10;;;;;;;;;;5001522;28;20053;-76
2023/10/14 05:35:22;;;;;;;1.08;0.50;;;;;;;;;;4993256;28;20042;-75
2023/10/14 05:37:47;;;;;;;1.13;0.20;;;;;;;;;;5009964;28;20524;-77
2023/10/14 05:40:13;;;;;;;0.30;0.30;;;;;;;;;;4995078;28;20141;-76
2023/10/14 05:42:45;;;;;;;1.05;0.30;;;;;;;;;;5008750;28;20531;-77
2023/10/14 05:45:11;;;;;;;0.70;0.32;;;;;;;;;;4999718;28;20048;-77
2023/10/14 05:47:37;;;;;;;1.35;0.30;;;;;;;;;;5010877;28;20151;-77
2023/10/14 05:50:08;;;;;;;0.10;0.10;;;;;;;;;;5010878;28;20041;-77
2023/10/14 05:52:34;;;;;;;2.22;1.13;;;;;;;;;;4997006;28;20060;-77
2023/10/14 05:55:01;;;;;;;1.48;0.28;;;;;;;;;;5009961;28;20477;-75
2023/10/14 05:57:29;;;;;;;1.10;0.20;;;;;;;;;;4998591;28;20042;-76
2023/10/14 05:59:57;;;;;;;1.85;0.20;;;;;;;;;;5022761;28;20042;-75
2023/10/14 06:02:22;;;;;;;0.32;0.32;;;;;;;;;;5009964;28;20072;-75
2023/10/14 06:04:50;;;;;;;0.10;0.10;;;;;;;;;;5009007;28;20045;-75
2023/10/14 06:07:18;;;;;;;0.45;0.10;;;;;;;;;;5009283;28;20889;-75
2023/10/14 06:09:45;;;;;;;0.10;0.10;;;;;;;;;;5008569;28;20076;-75
2023/10/14 06:12:14;;;;;;;0.32;0.20;;;;;;;;;;4996029;28;20048;-75
2023/10/14 06:14:44;;;;;;;0.38;0.10;;;;;;;;;;5008703;28;20044;-75
2023/10/14 06:17:14;;;;;;;0.10;0.10;;;;;;;;;;4991987;28;20085;-74
2023/10/14 06:19:40;;;;;;;0.47;0.20;;;;;;;;;;4991850;28;20072;-75
2023/10/14 06:22:07;;;;;;;0.52;0.22;;;;;;;;;;5010229;28;20073;-75
2023/10/14 06:24:34;;;;;;;0.20;0.20;;;;;;;;;;4999371;28;20833;-73
2023/10/14 06:27:08;;;;;;;1.17;0.55;;;;;;;;;;5007600;28;20116;-73
2023/10/14 06:29:37;;;;;;;1.15;0.28;;;;;;;;;;5010400;28;20064;-75
2023/10/14 06:32:04;;;;;;;3.22;0.43;;;;;;;;;;5023204;28;20041;-73
2023/10/14 06:34:33;;;;;;;2.72;0.50;;;;;;;;;;4993008;28;20460;-73
2023/10/14 06:37:02;;;;;;;1.27;0.40;;;;;;;;;;4981328;28;20034;-76
2023/10/14 06:39:27;;;;;;;1.20;0.40;;;;;;;;;;5007406;28;20156;-75
2023/10/14 06:41:53;;;;;;;1.35;0.47;;;;;;;;;;5005656;28;20132;-74
2023/10/14 06:44:26;;;;;;;1.13;0.68;;;;;;;;;;5004447;28;20124;-75
2023/10/14 06:46:56;;;;;;;1.20;0.38;;;;;;;;;;5012062;28;20068;-75
2023/10/14 06:49:23;;;;;;;4.45;0.73;;;;;;;;;;4995843;28;20152;-75
2023/10/14 06:51:51;;;;;;;2.90;0.57;;;;;;;;;;5003343;28;20116;-75
2023/10/14 06:54:25;;;;;;;1.20;0.50;;;;;;;;;;5007218;28;20091;-73
2023/10/14 06:56:56;;;;;;;3.00;0.50;;;;;;;;;;5020080;28;20044;-73
2023/10/14 06:59:21;;;;;;;4.15;0.70;;;;;;;;;;5019413;28;20063;-73
2023/10/14 07:01:47;;;;;;;4.47;0.80;;;;;;;;;;5013506;28;20044;-73
2023/10/14 07:04:13;;;;;;;3.33;1.00;;;;;;;;;;5002889;28;20116;-73
2023/10/14 07:06:43;;;;;;;1.20;0.60;;;;;;;;;;5011857;28;20037;-74
2023/10/14 07:09:17;;;;;;;2.47;0.95;;;;;;;;;;5008084;28;20041;-74
2023/10/14 07:11:45;;;;;;;3.55;0.80;;;;;;;;;;5005725;28;20037;-74
2023/10/14 07:14:10;;;;;;;2.45;0.60;;;;;;;;;;5012670;28;20517;-74
2023/10/14 07:16:35;;;;;;;3.55;0.60;;;;;;;;;;4999984;28;20083;-74
2023/10/14 07:19:01;;;;;;;3.10;0.63;;;;;;;;;;5012783;28;20034;-74
2023/10/14 07:21:29;;;;;;;1.65;0.75;;;;;;;;;;5012766;28;20132;-74
2023/10/14 07:24:05;;;;;;;3.05;0.70;;;;;;;;;;5016927;28;20517;-73
2023/10/14 07:26:36;;;;;;;4.28;0.68;;;;;;;;;;5009574;28;20055;-74
2023/10/14 07:29:02;;;;;;;2.97;0.70;;;;;;;;;;5000316;28;20106;-74
2023/10/14 07:31:30;;;;;;;1.95;0.70;;;;;;;;;;5009214;28;20037;-74
2023/10/14 07:34:02;;;;;;;5.15;0.80;;;;;;;;;;5004363;28;20037;-75
2023/10/14 07:36:28;;;;;;;5.82;1.20;;;;;;;;;;4991167;28;20494;-74
2023/10/14 07:39:01;;;;;;;5.15;1.20;;;;;;;;;;5008820;28;20057;-75
2023/10/14 07:41:26;;;;;;;4.75;1.00;;;;;;;;;;5004508;28;20031;-75
2023/10/14 07:43:52;;;;;;;4.53;0.88;;;;;;;;;;5014446;28;20487;-75
2023/10/14 07:46:17;;;;;;;1.98;0.68;;;;;;;;;;5011504;28;20041;-74
2023/10/14 07:48:43;;;;;;;4.43;1.00;;;;;;;;;;4997346;28;20045;-75
2023/10/14 07:51:09;;;;;;;7.28;0.93;;;;;;;;;;5015327;28;20044;-74
2023/10/14 07:53:35;;;;;;;3.47;0.80;;;;;;;;;;5011898;28;20034;-74
2023/10/14 07:56:01;;;;;;;3.55;0.90;;;;;;;;;;4997907;28;20723;-75
2023/10/14 07:58:27;;;;;;;5.30;1.00;;;;;;;;;;5009326;28;20092;-75
2023/10/14 08:00:54;;;;;;;5.50;0.90;;;;;;;;;;5007895;28;20037;-75
2023/10/14 08:03:29;;;;;;;3.50;1.10;;;;;;;;;;5003182;28;20034;-75
2023/10/14 08:05:59;;;;;;;4.88;1.38;;;;;;;;;;5008547;28;20089;-75
2023/10/14 08:08:30;;;;;;;2.88;0.73;;;;;;;;;;4996919;28;20049;-75
2023/10/14 08:10:57;;;;;;;2.80;0.70;;;;;;;;;;4995434;28;20041;-75
2023/10/14 08:13:23;;;;;;;2.83;0.70;;;;;;;;;;5007429;28;20125;-75
2023/10/14 08:15:54;;;;;;;3.03;0.80;;;;;;;;;;5020839;28;20136;-75
2023/10/14 08:18:23;;;;;;;3.17;1.00;;;;;;;;;;5017951;28;20151;-75
2023/10/14 08:20:55;;;;;;;5.18;0.90;;;;;;;;;;5017694;28;20041;-75
2023/10/14 08:23:21;;;;;;;1.92;0.85;;;;;;;;;;5009340;28;20061;-74
2023/10/14 08:25:53;;;;;;;4.03;1.30;;;;;;;;;;4996645;28;20029;-74
2023/10/14 08:28:21;;;;;;;3.40;0.95;;;;;;;;;;5012941;28;20041;-74
2023/10/14 08:30:50;;;;;;;3.83;1.38;;;;;;;;;;5011762;28;20083;-74
2023/10/14 08:33:18;;;;;;;1.95;0.70;;;;;;;;;;4999625;28;20471;-74
2023/10/14 08:35:44;;;;;;;3.75;0.90;;;;;;;;;;5014226;28;20059;-74
2023/10/14 08:38:12;;;;;;;4.57;0.75;;;;;;;;;;5013086;28;20072;-74
2023/10/14 08:40:39;;;;;;;2.88;0.70;;;;;;;;;;5017866;28;20041;-75
2023/10/14 08:43:08;;;;;;;3.05;0.60;;;;;;;;;;5013522;28;20043;-75
2023/10/14 08:45:36;;;;;;;5.22;1.00;;;;;;;;;;5007877;28;20598;-74
2023/10/14 08:48:02;;;;;;;2.80;0.68;;;;;;;;;;5002233;28;20132;-75
2023/10/14 08:50:29;;;;;;;1.95;0.90;;;;;;;;;;5013899;28;20087;-75
2023/10/14 08:52:56;;;;;;;4.38;1.55;;;;;;;;;;4999851;28;20172;-75
2023/10/14 08:55:22;;;;;;;3.95;0.80;;;;;;;;;;5014493;28;20029;-75
2023/10/14 08:57:49;;;;;;;4.22;0.90;;;;;;;;;;5016377;28;20041;-75
2023/10/14 09:00:20;;;;;;;2.85;0.65;;;;;;;;;;5006032;28;20056;-74
2023/10/14 09:02:50;;;;;;;4.65;1.00;;;;;;;;;;5011722;28;20497;-74
2023/10/14 09:05:19;;;;;;;3.45;0.88;;;;;;;;;;5016950;28;20048;-74
2023/10/14 09:07:45;;;;;;;3.38;0.70;;;;;;;;;;5008824;28;20038;-74
2023/10/14 09:10:13;;;;;;;3.00;0.88;;;;;;;;;;5008587;28;20045;-74
2023/10/14 09:12:39;;;;;;;6.15;0.80;;;;;;;;;;5016594;28;20419;-74
2023/10/14 09:15:05;;;;;;;2.00;0.50;;;;;;;;;;4995089;28;20134;-74
2023/10/14 09:17:30;;;;;;;2.80;0.70;;;;;;;;;;5011363;28;20061;-74
2023/10/14 09:19:56;;;;;;;2.35;0.70;;;;;;;;;;5010917;28;20142;-74
2023/10/14 09:22:26;;;;;;;6.07;0.90;;;;;;;;;;5005678;28;20718;-74
2023/10/14 09:24:54;;;;;;;5.38;1.33;;;;;;;;;;5011043;28;20037;-74
2023/10/14 09:27:20;;;;;;;2.92;0.60;;;;;;;;;;5003890;28;20037;-74
2023/10/14 09:29:46;;;;;;;3.42;0.68;;;;;;;;;;5012675;28;20041;-74
2023/10/14 09:32:13;;;;;;;4.85;0.90;;;;;;;;;;5015227;28;20435;-74
2023/10/14 09:34:41;;;;;;;1.40;0.60;;;;;;;;;;5014935;28;20033;-74
2023/10/14 09:37:11;;;;;;;4.25;0.65;;;;;;;;;;5011289;28;20132;-74
2023/10/14 09:39:41;;;;;;;5.10;1.25;;;;;;;;;;4990691;28;20156;-74
2023/10/14 09:42:10;;;;;;;4.07;0.90;;;;;;;;;;4996692;28;20041;-74
2023/10/14 09:44:40;;;;;;;2.38;0.57;;;;;;;;;;5015091;28;20037;-74
2023/10/14 09:47:09;;;;;;;2.75;0.60;;;;;;;;;;5007808;28;20517;-74
2023/10/14 09:49:37;;;;;;;4.65;0.65;;;;;;;;;;5011170;28;20729;-74
2023/10/14 09:52:03;;;;;;;2.30;0.65;;;;;;;;;;5012499;28;20642;-74
2023/10/14 09:54:31;;;;;;;3.20;0.60;;;;;;;;;;5002887;28;20048;-74
2023/10/14 09:57:00;;;;;;;3.65;0.90;;;;;;;;;;5004629;28;20038;-74
2023/10/14 09:59:28;;;;;;;3.28;0.57;;;;;;;;;;5011164;28;20042;-74
2023/10/14 10:01:54;;;;;;;3.65;0.63;;;;;;;;;;5011468;28;20037;-74
2023/10/14 10:04:24;;;;;;;5.43;0.60;;;;;;;;;;5021055;28;20028;-74
2023/10/14 10:07:16;;;;;;;1.70;0.50;;;;;;;;;;4998789;28;20076;-75
2023/10/14 10:10:07;;;;;;;6.47;0.68;;;;;;;;;;5009100;28;20037;-74
2023/10/14 10:12:33;;;;;;;6.13;0.85;;;;;;;;;;5010819;28;20898;-74
2023/10/14 10:15:03;;;;;;;1.90;0.75;;;;;;;;;;5013031;28;20513;-74
2023/10/14 10:17:30;;;;;;;3.53;0.57;;;;;;;;;;5001134;28;20045;-74
2023/10/14 10:20:25;;;;;;;2.45;0.60;;;;;;;;;;5004213;28;20532;-74
2023/10/14 10:22:52;;;;;;;4.28;0.80;;;;;;;;;;5014749;28;20051;-74
2023/10/14 10:25:22;;;;;;;3.78;0.50;;;;;;;;;;5011947;28;20038;-74
2023/10/14 10:27:55;;;;;;;1.75;0.70;;;;;;;;;;4999458;28;20037;-74
2023/10/14 10:30:22;;;;;;;4.03;0.95;;;;;;;;;;5017689;28;20045;-74
2023/10/14 10:32:50;;;;;;;3.72;0.75;;;;;;;;;;5009273;28;20142;-74
2023/10/14 10:35:18;;;;;;;6.35;1.08;;;;;;;;;;5009244;28;20037;-74
2023/10/14 10:37:57;;;;;;;1.48;0.47;;;;;;;;;;5013078;28;20061;-74
2023/10/14 10:40:25;;;;;;;3.30;0.77;;;;;;;;;;5003380;28;20048;-74
2023/10/14 10:43:10;;;;;;;4.15;0.77;;;;;;;;;;5004184;28;20713;-74
2023/10/14 10:45:40;;;;;;;1.42;0.50;;;;;;;;;;5007868;28;20037;-74
2023/10/14 10:58:59;;;;;;;4.10;1.00;;;;;;;;;;5098571;23;20405;-91
2023/10/14 11:01:54;;;;;;;3.40;0.73;;;;;;;;;;5047794;28;20037;-90
2023/10/14 11:08:46;;;;;;;3.05;0.70;;;;;;;;;;5045355;28;20102;-89
2023/10/14 11:12:03;;;;;;;0.85;0.50;;;;;;;;;;4986666;28;20038;-90
2023/10/14 11:15:13;;;;;;;4.05;1.00;;;;;;;;;;4989439;28;20049;-91
2023/10/14 11:18:35;;;;;;;2.38;0.65;;;;;;;;;;4929094;29;20046;-90
2023/10/14 11:21:39;;;;;;;4.35;0.73;;;;;;;;;;4927384;29;20140;-90
2023/10/14 11:24:48;;;;;;;8.95;1.20;;;;;;;;;;4931840;29;20470;-89
2023/10/14 11:27:16;;;;;;;2.13;0.73;;;;;;;;;;4904762;29;20877;-89
2023/10/14 16:11:32;;;;;;;2.72;0.80;;;;;;;;;;5047790;23;20179;-71
2023/10/14 16:14:02;;;;;;;3.60;0.90;;;;;;;;;;5028926;28;20076;-69
2023/10/14 16:16:28;;;;;;;4.05;0.70;;;;;;;;;;5019193;28;20509;-69
2023/10/14 16:18:53;;;;;;;4.18;0.70;;;;;;;;;;5018792;28;20037;-69
2023/10/14 16:21:19;;;;;;;3.28;0.70;;;;;;;;;;5020833;28;20033;-69
2023/10/14 16:23:44;;;;;;;2.38;0.63;;;;;;;;;;5025373;28;20474;-73
2023/10/14 16:26:11;;;;;;;3.83;0.73;;;;;;;;;;5019968;28;20036;-73
2023/10/14 16:28:38;;;;;;;1.27;0.50;;;;;;;;;;5023479;28;20986;-73
2023/10/14 16:31:13;;;;;;;2.70;0.70;;;;;;;;;;5022703;28;20021;-74
2023/10/14 16:33:38;;;;;;;1.67;0.93;;;;;;;;;;5024819;28;20532;-74
2023/10/14 16:36:04;;;;;;;1.27;0.45;;;;;;;;;;5031923;28;20034;-74
2023/10/14 16:38:31;;;;;;;3.63;0.70;;;;;;;;;;5003606;23;20049;-71
2023/10/14 16:40:57;;;;;;;2.00;0.50;;;;;;;;;;4997946;28;20030;-71
2023/10/14 16:43:25;;;;;;;1.00;0.50;;;;;;;;;;5004234;28;20053;-71
2023/10/14 16:45:51;;;;;;;4.20;0.65;;;;;;;;;;5005510;28;20076;-72
2023/10/14 16:48:17;;;;;;;1.40;0.50;;;;;;;;;;5000132;28;20022;-75
2023/10/14 16:50:43;;;;;;;1.55;0.50;;;;;;;;;;4993167;28;20026;-72
2023/10/14 16:53:09;;;;;;;2.95;0.70;;;;;;;;;;4995086;28;20197;-73
2023/10/14 16:55:36;;;;;;;2.60;0.65;;;;;;;;;;5006525;28;20029;-73
2023/10/14 16:58:01;;;;;;;4.90;0.63;;;;;;;;;;5007694;28;20022;-73
2023/10/14 17:00:32;;;;;;;2.55;0.70;;;;;;;;;;5000563;28;20056;-73
2023/10/14 17:02:58;;;;;;;2.93;0.80;;;;;;;;;;4997429;28;20026;-73
2023/10/14 17:05:25;;;;;;;3.03;0.70;;;;;;;;;;4998963;28;20259;-74
2023/10/14 17:07:57;;;;;;;1.13;0.63;;;;;;;;;;4991723;28;20038;-74
2023/10/14 17:10:26;;;;;;;;;;;;;;;;;;4995895;28;20073;-74
2023/10/14 17:12:56;;;;;;;4.13;0.90;;;;;;;;;;4994899;28;20004;-73
2023/10/14 17:15:22;;;;;;;3.20;0.70;;;;;;;;;;5002363;28;20026;-74
2023/10/14 17:17:53;;;;;;;1.23;0.50;;;;;;;;;;5003282;28;20080;-73
2023/10/14 17:20:23;;;;;;;1.55;0.60;;;;;;;;;;5005446;28;20029;-73
2023/10/14 17:22:52;;;;;;;3.30;0.73;;;;;;;;;;5007064;28;20018;-73
2023/10/14 17:25:19;;;;;;;1.50;0.50;;;;;;;;;;4999713;28;20371;-73
2023/10/14 17:27:44;;;;;;;1.20;0.40;;;;;;;;;;5004725;28;20029;-73
2023/10/14 17:30:11;;;;;;;2.63;0.57;;;;;;;;;;5007358;28;20029;-73
2023/10/14 17:32:37;;;;;;;1.50;0.50;;;;;;;;;;5007632;28;20041;-73
2023/10/14 17:35:13;;;;;;;5.15;0.77;;;;;;;;;;5004458;28;20555;-73
2023/10/14 17:37:43;;;;;;;1.55;0.55;;;;;;;;;;5007844;28;20033;-73
2023/10/14 17:40:13;;;;;;;2.30;0.70;;;;;;;;;;5001309;28;20029;-73
2023/10/14 17:42:41;;;;;;;2.65;0.73;;;;;;;;;;5006455;28;20180;-73
2023/10/14 17:45:08;;;;;;;3.13;0.50;;;;;;;;;;5004289;28;20022;-73
2023/10/14 17:47:34;;;;;;;3.65;0.88;;;;;;;;;;5003869;28;20049;-73
2023/10/14 17:49:59;;;;;;;1.65;0.40;;;;;;;;;;5001392;28;20052;-73
2023/10/14 17:52:24;;;;;;;5.38;0.90;;;;;;;;;;5005230;28;20658;-73
2023/10/14 17:54:53;;;;;;;1.60;0.60;;;;;;;;;;5008084;28;20037;-73
2023/10/14 17:57:19;;;;;;;4.93;0.80;;;;;;;;;;4998617;28;20030;-73
2023/10/14 17:59:45;;;;;;;3.70;0.80;;;;;;;;;;5007787;28;20028;-73
2023/10/14 18:02:10;;;;;;;1.98;0.60;;;;;;;;;;5010048;28;20202;-73
2023/10/14 18:04:35;;;;;;;1.02;0.40;;;;;;;;;;5001862;28;20019;-73
2023/10/14 18:07:01;;;;;;;1.67;0.50;;;;;;;;;;4994611;28;20033;-73
2023/10/14 18:09:26;;;;;;;0.93;0.60;;;;;;;;;;4998227;28;20089;-73
2023/10/14 18:11:52;;;;;;;1.75;0.77;;;;;;;;;;4996303;28;20479;-73
2023/10/14 18:14:17;;;;;;;2.13;0.52;;;;;;;;;;5005588;28;20085;-73
2023/10/14 18:16:43;;;;;;;2.30;0.65;;;;;;;;;;4997816;28;20438;-73
2023/10/14 18:19:11;;;;;;;3.40;0.63;;;;;;;;;;4997355;28;20037;-73
2023/10/14 18:21:37;;;;;;;4.20;0.57;;;;;;;;;;4999123;28;20050;-73
2023/10/14 18:24:03;;;;;;;3.58;0.85;;;;;;;;;;5005147;28;20450;-73
2023/10/14 18:26:28;;;;;;;2.58;0.60;;;;;;;;;;5009066;28;20026;-73
2023/10/14 18:28:54;;;;;;;2.95;0.60;;;;;;;;;;5001036;28;20022;-73
2023/10/14 18:31:20;;;;;;;3.92;0.52;;;;;;;;;;4996173;28;20780;-73
2023/10/14 18:33:46;;;;;;;1.30;0.50;;;;;;;;;;4993896;28;20390;-73
2023/10/14 18:36:11;;;;;;;1.15;0.50;;;;;;;;;;5006669;28;20025;-73
2023/10/14 18:38:38;;;;;;;3.97;0.50;;;;;;;;;;5000736;28;20101;-73
2023/10/14 18:41:14;;;;;;;2.78;0.63;;;;;;;;;;4993874;28;20034;-73
2023/10/14 18:43:41;;;;;;;1.10;0.50;;;;;;;;;;4992445;28;20030;-73
2023/10/14 18:46:18;;;;;;;3.42;0.68;;;;;;;;;;5006518;28;20037;-73
2023/10/14 18:48:43;;;;;;;2.65;1.25;;;;;;;;;;5004553;28;20055;-73
2023/10/14 18:51:17;;;;;;;3.83;1.15;;;;;;;;;;4994444;28;20063;-73
2023/10/14 18:53:43;;;;;;;5.53;0.88;;;;;;;;;;4997778;28;20771;-73
2023/10/14 18:56:16;;;;;;;3.42;0.70;;;;;;;;;;4988538;28;20088;-73
2023/10/14 18:58:49;;;;;;;0.68;0.30;;;;;;;;;;5000888;28;20041;-73
2023/10/14 19:01:16;;;;;;;1.25;0.52;;;;;;;;;;4997203;28;20033;-73
2023/10/14 19:03:41;;;;;;;0.73;0.32;;;;;;;;;;4996664;28;20145;-73
2023/10/14 19:06:08;;;;;;;1.40;0.55;;;;;;;;;;5013869;28;20461;-72
2023/10/14 19:08:37;;;;;;;3.08;0.60;;;;;;;;;;4997664;28;20444;-71
2023/10/14 19:11:07;;;;;;;2.63;0.65;;;;;;;;;;5005850;28;20048;-71
2023/10/14 19:13:34;;;;;;;5.97;0.85;;;;;;;;;;4999483;28;20061;-74
2023/10/14 19:15:59;;;;;;;2.10;0.60;;;;;;;;;;5010981;28;20551;-72
2023/10/14 19:18:27;;;;;;;3.00;0.77;;;;;;;;;;5009883;28;20029;-73
2023/10/14 19:20:54;;;;;;;2.33;0.60;;;;;;;;;;5012889;28;20104;-75
2023/10/14 19:23:25;;;;;;;4.38;0.95;;;;;;;;;;5013255;28;20041;-72
2023/10/14 19:25:52;;;;;;;0.60;0.45;;;;;;;;;;5007852;28;20025;-72
2023/10/14 19:28:23;;;;;;;5.43;0.77;;;;;;;;;;5000509;28;20030;-72
2023/10/14 19:30:51;;;;;;;0.80;0.57;;;;;;;;;;5008300;28;20084;-73
2023/10/14 19:33:18;;;;;;;6.03;0.70;;;;;;;;;;4996068;28;20092;-72
2023/10/14 19:35:45;;;;;;;6.32;0.60;;;;;;;;;;5010757;28;20327;-73
2023/10/14 19:38:12;;;;;;;3.35;0.80;;;;;;;;;;5011234;28;20545;-73
2023/10/14 19:40:40;;;;;;;4.13;0.60;;;;;;;;;;4996772;28;20125;-73
2023/10/14 19:43:06;;;;;;;3.55;0.60;;;;;;;;;;4998813;28;20094;-73
2023/10/14 19:45:32;;;;;;;2.83;0.65;;;;;;;;;;5006117;28;20037;-73
2023/10/14 19:47:59;;;;;;;2.35;0.57;;;;;;;;;;5008759;28;20038;-73
2023/10/14 19:50:32;;;;;;;2.53;0.73;;;;;;;;;;5011916;28;20136;-73
2023/10/14 19:52:58;;;;;;;4.25;0.70;;;;;;;;;;4997234;28;20065;-72
2023/10/14 19:55:32;;;;;;;2.40;0.57;;;;;;;;;;4993414;28;20775;-73
2023/10/14 19:58:01;;;;;;;4.70;1.02;;;;;;;;;;5012837;28;20029;-73
2023/10/14 20:00:28;;;;;;;2.05;0.40;;;;;;;;;;5013244;28;20410;-73
2023/10/14 20:03:00;;;;;;;1.58;0.43;;;;;;;;;;5009050;28;20030;-72
2023/10/14 20:05:27;;;;;;;0.73;0.35;;;;;;;;;;5001499;28;20034;-73
2023/10/14 20:07:57;;;;;;;1.50;0.60;;;;;;;;;;5003435;28;20042;-72
2023/10/14 20:10:24;;;;;;;2.90;0.60;;;;;;;;;;5006664;28;20037;-72
2023/10/14 20:12:50;;;;;;;2.58;0.68;;;;;;;;;;5010906;28;20041;-72
2023/10/14 20:15:20;;;;;;;3.75;0.90;;;;;;;;;;5007575;28;20703;-72
2023/10/14 20:17:46;;;;;;;3.88;0.70;;;;;;;;;;5010596;28;20034;-73
2023/10/14 20:20:16;;;;;;;3.33;1.00;;;;;;;;;;5002020;28;20041;-72
2023/10/14 20:22:48;;;;;;;3.55;0.98;;;;;;;;;;5004896;28;20121;-72
2023/10/14 20:25:18;;;;;;;4.15;0.85;;;;;;;;;;5003017;28;20037;-72